KCUL

Carmi Municipal Airport

Carmi, Illinois, USA
METAR KCUL 172055Z AUTO 16007KT 10SM BKN015 OVC022 07/05 A3008 RMK AO2 T00690046
Observed Flight Rules
Dec-17 @ 20:55 UTC (22 minutes ago) Marginal Visual Flight Rules
Wind Visibility Clouds
160° at 7 knots 10 miles
  • Broken at 1,500' AGL
  • Overcast at 2,200' AGL
Temperatures Readings
Current 7°C / 45°F
Dewpoint 5°C / 41°F
Humidity 87%
Altimeter 30.08" Hg
Pressure 1019 hPa
Elevation 118
METAR KCUL 172055Z AUTO 16007KT 10SM BKN015 OVC022 07/05 A3008 RMK AO2 T00690046
Observed Flight Rules
Dec-17 @ 20:55 UTC
(22 minutes ago)
MVFR
Wind Visibility
160° at 7 knots 10 miles
Clouds
  • Broken at 1,500' AGL
  • Overcast at 2,200' AGL
Temperature Dewpoint
7°C / 45°F 5°C / 41°F
Humidity Altimeter Pressure
87% 30.08" Hg 1019 hPa